Current | Forecast
Updated: 12:50 PM EEST on April 20, 2018
Observed at Chrysopouli, Greece
Temperature 18°C
Humidity 56%
Dew Point 9°C
Wind ENE at 32 km/h
Wind Gust 50 km/h
Pressure 1017 hPa (Steady)
Conditions Mostly Cloudy
Visibility 10.0 kilometers
UV 5 out of 16
Clouds (FEW) : 1066 m
Mostly Cloudy (BKN) : 2438 m
Yesterday's Maximum 23°C
Yesterday's Minimum 16°C approx.
Yesterday's Cooling Degree Days 2 approx.
Sunrise6:36 AM EEST
Sunset8:07 PM EEST
Moon Rise9:58 AM EEST
Moon Set
Moon PhaseMoon Phase
Waxing Crescent
Raw METARMETAR LGKV 200950Z 07017G27KT 9999 FEW035 BKN080 18/09 Q1017


Monday
. High: 71° F.
Tuesday
. High: 75° F.
Wednesday
. High: 77° F.
Thursday
. High: 77° F.
Friday
. High: 78° F.
Saturday
. High: 77° F.
Sunday
. High: 73° F.
Monday
. High: 75° F.

Units: English | Metric

Find the Weather for any City, State or Zipcode, or Country:

U.S. State List | Severe Weather | Tropical Storms | Ski Conditions
United States | Canada | Central America | South America | Asia | Europe | Australia | Africa | Islands

Weather Underground

© Copyright 2018
The Weather Company, LLC